sensor_id;sensor_type;location;lat;lon;timestamp;P1;durP1;ratioP1;P2;durP2;ratioP2
53521;SDS011;39398;48.382;9.802;2023-04-10T00:00:41;14.63;;;10.20;;
53521;SDS011;39398;48.382;9.802;2023-04-10T00:05:43;16.88;;;10.90;;
53521;SDS011;39398;48.382;9.802;2023-04-10T00:10:46;14.90;;;10.20;;
53521;SDS011;39398;48.382;9.802;2023-04-10T00:15:49;14.68;;;10.98;;
53521;SDS011;39398;48.382;9.802;2023-04-10T00:20:50;16.77;;;10.45;;
53521;SDS011;39398;48.382;9.802;2023-04-10T00:25:53;15.70;;;10.98;;
53521;SDS011;39398;48.382;9.802;2023-04-10T00:30:54;14.77;;;11.10;;
53521;SDS011;39398;48.382;9.802;2023-04-10T00:35:56;13.32;;;10.43;;
53521;SDS011;39398;48.382;9.802;2023-04-10T00:40:59;15.27;;;11.30;;
53521;SDS011;39398;48.382;9.802;2023-04-10T00:46:00;15.90;;;11.35;;
53521;SDS011;39398;48.382;9.802;2023-04-10T00:51:02;14.60;;;10.68;;
53521;SDS011;39398;48.382;9.802;2023-04-10T00:56:06;13.73;;;10.02;;
53521;SDS011;39398;48.382;9.802;2023-04-10T01:01:08;13.77;;;10.30;;
53521;SDS011;39398;48.382;9.802;2023-04-10T01:06:11;14.50;;;10.43;;
53521;SDS011;39398;48.382;9.802;2023-04-10T01:11:22;15.57;;;10.85;;
53521;SDS011;39398;48.382;9.802;2023-04-10T01:16:30;14.68;;;10.82;;
53521;SDS011;39398;48.382;9.802;2023-04-10T01:21:36;14.48;;;10.82;;
53521;SDS011;39398;48.382;9.802;2023-04-10T01:26:46;13.40;;;10.13;;
53521;SDS011;39398;48.382;9.802;2023-04-10T01:31:59;14.57;;;10.57;;
53521;SDS011;39398;48.382;9.802;2023-04-10T01:37:04;13.60;;;9.80;;
53521;SDS011;39398;48.382;9.802;2023-04-10T01:42:12;14.02;;;10.27;;
53521;SDS011;39398;48.382;9.802;2023-04-10T01:47:16;13.57;;;9.85;;
53521;SDS011;39398;48.382;9.802;2023-04-10T01:52:19;14.27;;;9.48;;
53521;SDS011;39398;48.382;9.802;2023-04-10T01:57:21;14.70;;;10.48;;
53521;SDS011;39398;48.382;9.802;2023-04-10T02:02:24;13.43;;;9.82;;
53521;SDS011;39398;48.382;9.802;2023-04-10T02:07:27;14.20;;;9.63;;
53521;SDS011;39398;48.382;9.802;2023-04-10T02:12:35;13.35;;;9.48;;
53521;SDS011;39398;48.382;9.802;2023-04-10T02:17:43;17.60;;;12.57;;
53521;SDS011;39398;48.382;9.802;2023-04-10T02:22:45;14.32;;;10.55;;
53521;SDS011;39398;48.382;9.802;2023-04-10T02:27:47;15.68;;;11.18;;
53521;SDS011;39398;48.382;9.802;2023-04-10T02:32:49;17.35;;;12.25;;
53521;SDS011;39398;48.382;9.802;2023-04-10T02:37:51;16.58;;;11.75;;
53521;SDS011;39398;48.382;9.802;2023-04-10T02:42:52;18.27;;;12.85;;
53521;SDS011;39398;48.382;9.802;2023-04-10T02:47:55;19.92;;;13.00;;
53521;SDS011;39398;48.382;9.802;2023-04-10T02:52:57;17.20;;;11.48;;
53521;SDS011;39398;48.382;9.802;2023-04-10T02:57:58;15.50;;;10.88;;
53521;SDS011;39398;48.382;9.802;2023-04-10T03:03:01;14.73;;;10.43;;
53521;SDS011;39398;48.382;9.802;2023-04-10T03:08:03;13.85;;;10.20;;
53521;SDS011;39398;48.382;9.802;2023-04-10T03:13:05;13.10;;;9.50;;
53521;SDS011;39398;48.382;9.802;2023-04-10T03:18:08;15.00;;;10.75;;
53521;SDS011;39398;48.382;9.802;2023-04-10T03:23:10;16.40;;;10.48;;
53521;SDS011;39398;48.382;9.802;2023-04-10T03:28:11;15.90;;;11.15;;
53521;SDS011;39398;48.382;9.802;2023-04-10T03:33:14;14.38;;;10.55;;
53521;SDS011;39398;48.382;9.802;2023-04-10T03:38:16;14.98;;;10.70;;
53521;SDS011;39398;48.382;9.802;2023-04-10T03:43:17;13.95;;;10.23;;
53521;SDS011;39398;48.382;9.802;2023-04-10T03:48:20;14.00;;;10.27;;
53521;SDS011;39398;48.382;9.802;2023-04-10T03:53:22;15.65;;;10.18;;
53521;SDS011;39398;48.382;9.802;2023-04-10T03:58:23;13.23;;;9.70;;
53521;SDS011;39398;48.382;9.802;2023-04-10T04:03:26;14.57;;;10.50;;
53521;SDS011;39398;48.382;9.802;2023-04-10T04:08:28;13.90;;;10.15;;
53521;SDS011;39398;48.382;9.802;2023-04-10T04:13:30;14.43;;;9.95;;
53521;SDS011;39398;48.382;9.802;2023-04-10T04:18:33;15.02;;;10.05;;
53521;SDS011;39398;48.382;9.802;2023-04-10T04:23:34;14.35;;;9.77;;
53521;SDS011;39398;48.382;9.802;2023-04-10T04:28:36;15.07;;;10.85;;
53521;SDS011;39398;48.382;9.802;2023-04-10T04:33:39;13.43;;;9.50;;
53521;SDS011;39398;48.382;9.802;2023-04-10T04:38:40;14.80;;;9.80;;
53521;SDS011;39398;48.382;9.802;2023-04-10T04:43:42;13.20;;;9.85;;
53521;SDS011;39398;48.382;9.802;2023-04-10T04:48:44;14.35;;;9.93;;
53521;SDS011;39398;48.382;9.802;2023-04-10T04:53:46;13.50;;;10.10;;
53521;SDS011;39398;48.382;9.802;2023-04-10T04:58:48;13.90;;;9.73;;
53521;SDS011;39398;48.382;9.802;2023-04-10T05:03:51;15.85;;;10.65;;
53521;SDS011;39398;48.382;9.802;2023-04-10T05:08:52;14.80;;;10.65;;
53521;SDS011;39398;48.382;9.802;2023-04-10T05:13:54;14.63;;;10.98;;
53521;SDS011;39398;48.382;9.802;2023-04-10T05:18:57;17.55;;;11.68;;
53521;SDS011;39398;48.382;9.802;2023-04-10T05:23:59;18.95;;;13.25;;
53521;SDS011;39398;48.382;9.802;2023-04-10T05:29:00;20.90;;;14.40;;
53521;SDS011;39398;48.382;9.802;2023-04-10T05:34:03;22.05;;;14.23;;
53521;SDS011;39398;48.382;9.802;2023-04-10T05:39:04;18.75;;;12.55;;
53521;SDS011;39398;48.382;9.802;2023-04-10T05:44:06;15.77;;;11.60;;
53521;SDS011;39398;48.382;9.802;2023-04-10T05:49:09;16.60;;;11.65;;
53521;SDS011;39398;48.382;9.802;2023-04-10T05:54:10;16.50;;;11.82;;
53521;SDS011;39398;48.382;9.802;2023-04-10T05:59:12;15.32;;;11.35;;
53521;SDS011;39398;48.382;9.802;2023-04-10T06:04:15;15.25;;;10.30;;
53521;SDS011;39398;48.382;9.802;2023-04-10T06:09:17;15.00;;;10.90;;
53521;SDS011;39398;48.382;9.802;2023-04-10T06:14:18;14.80;;;9.75;;
53521;SDS011;39398;48.382;9.802;2023-04-10T06:19:21;14.45;;;9.13;;
53521;SDS011;39398;48.382;9.802;2023-04-10T06:24:23;11.88;;;8.15;;
53521;SDS011;39398;48.382;9.802;2023-04-10T06:29:24;10.75;;;7.72;;
53521;SDS011;39398;48.382;9.802;2023-04-10T06:34:27;10.90;;;6.80;;
53521;SDS011;39398;48.382;9.802;2023-04-10T06:39:29;9.85;;;6.82;;
53521;SDS011;39398;48.382;9.802;2023-04-10T06:44:30;8.38;;;6.00;;
53521;SDS011;39398;48.382;9.802;2023-04-10T06:49:33;10.63;;;6.55;;
53521;SDS011;39398;48.382;9.802;2023-04-10T06:54:34;8.93;;;5.90;;
53521;SDS011;39398;48.382;9.802;2023-04-10T06:59:36;9.20;;;6.40;;
53521;SDS011;39398;48.382;9.802;2023-04-10T07:04:39;9.32;;;7.07;;
53521;SDS011;39398;48.382;9.802;2023-04-10T07:09:40;10.68;;;7.10;;
53521;SDS011;39398;48.382;9.802;2023-04-10T07:14:42;9.65;;;6.25;;
53521;SDS011;39398;48.382;9.802;2023-04-10T07:19:45;9.90;;;6.57;;
53521;SDS011;39398;48.382;9.802;2023-04-10T07:24:46;8.32;;;5.68;;
53521;SDS011;39398;48.382;9.802;2023-04-10T07:29:48;9.68;;;6.47;;
53521;SDS011;39398;48.382;9.802;2023-04-10T07:34:51;10.23;;;6.93;;
53521;SDS011;39398;48.382;9.802;2023-04-10T07:39:52;10.90;;;6.90;;
53521;SDS011;39398;48.382;9.802;2023-04-10T07:44:54;11.57;;;7.05;;
53521;SDS011;39398;48.382;9.802;2023-04-10T07:49:56;11.30;;;7.32;;
53521;SDS011;39398;48.382;9.802;2023-04-10T07:55:00;12.95;;;7.68;;
53521;SDS011;39398;48.382;9.802;2023-04-10T08:00:03;11.25;;;7.82;;
53521;SDS011;39398;48.382;9.802;2023-04-10T08:05:06;10.80;;;6.82;;
53521;SDS011;39398;48.382;9.802;2023-04-10T08:10:09;13.13;;;8.45;;
53521;SDS011;39398;48.382;9.802;2023-04-10T08:15:11;11.02;;;7.28;;
53521;SDS011;39398;48.382;9.802;2023-04-10T08:20:14;9.43;;;7.00;;
53521;SDS011;39398;48.382;9.802;2023-04-10T08:25:16;12.20;;;6.90;;
53521;SDS011;39398;48.382;9.802;2023-04-10T08:30:17;10.65;;;7.15;;
53521;SDS011;39398;48.382;9.802;2023-04-10T08:35:20;8.23;;;5.63;;
53521;SDS011;39398;48.382;9.802;2023-04-10T08:40:22;10.55;;;7.18;;
53521;SDS011;39398;48.382;9.802;2023-04-10T08:45:23;10.75;;;7.50;;
53521;SDS011;39398;48.382;9.802;2023-04-10T08:50:26;10.25;;;7.25;;
53521;SDS011;39398;48.382;9.802;2023-04-10T08:55:31;9.73;;;6.60;;
53521;SDS011;39398;48.382;9.802;2023-04-10T09:00:34;9.02;;;6.50;;
53521;SDS011;39398;48.382;9.802;2023-04-10T09:05:37;9.35;;;6.28;;
53521;SDS011;39398;48.382;9.802;2023-04-10T09:10:39;9.52;;;6.60;;
53521;SDS011;39398;48.382;9.802;2023-04-10T09:15:57;8.35;;;6.40;;
53521;SDS011;39398;48.382;9.802;2023-04-10T09:21:06;8.45;;;6.10;;
53521;SDS011;39398;48.382;9.802;2023-04-10T09:26:21;8.68;;;6.13;;
53521;SDS011;39398;48.382;9.802;2023-04-10T09:31:28;9.32;;;6.72;;
53521;SDS011;39398;48.382;9.802;2023-04-10T09:36:33;11.23;;;7.97;;
53521;SDS011;39398;48.382;9.802;2023-04-10T09:41:35;9.88;;;6.80;;
53521;SDS011;39398;48.382;9.802;2023-04-10T09:46:47;8.52;;;6.05;;
53521;SDS011;39398;48.382;9.802;2023-04-10T09:51:50;7.22;;;5.28;;
53521;SDS011;39398;48.382;9.802;2023-04-10T09:56:52;7.97;;;6.22;;
53521;SDS011;39398;48.382;9.802;2023-04-10T10:01:54;6.15;;;4.93;;
53521;SDS011;39398;48.382;9.802;2023-04-10T10:06:57;7.25;;;5.55;;
53521;SDS011;39398;48.382;9.802;2023-04-10T10:11:59;7.07;;;5.18;;
53521;SDS011;39398;48.382;9.802;2023-04-10T10:17:03;7.43;;;4.68;;
53521;SDS011;39398;48.382;9.802;2023-04-10T10:22:09;5.55;;;4.45;;
53521;SDS011;39398;48.382;9.802;2023-04-10T10:27:11;6.45;;;4.90;;
53521;SDS011;39398;48.382;9.802;2023-04-10T10:32:16;4.50;;;3.75;;
53521;SDS011;39398;48.382;9.802;2023-04-10T10:37:20;4.88;;;3.78;;
53521;SDS011;39398;48.382;9.802;2023-04-10T10:42:24;5.07;;;3.80;;
53521;SDS011;39398;48.382;9.802;2023-04-10T10:47:31;4.90;;;3.60;;
53521;SDS011;39398;48.382;9.802;2023-04-10T10:52:44;4.03;;;3.40;;
53521;SDS011;39398;48.382;9.802;2023-04-10T11:08:39;4.18;;;3.40;;
53521;SDS011;39398;48.382;9.802;2023-04-10T11:14:10;5.00;;;3.57;;
53521;SDS011;39398;48.382;9.802;2023-04-10T11:19:13;3.20;;;2.90;;
53521;SDS011;39398;48.382;9.802;2023-04-10T11:24:19;3.75;;;3.30;;
53521;SDS011;39398;48.382;9.802;2023-04-10T11:29:33;3.80;;;2.97;;
53521;SDS011;39398;48.382;9.802;2023-04-10T11:34:35;3.05;;;2.45;;
53521;SDS011;39398;48.382;9.802;2023-04-10T11:39:45;3.17;;;2.70;;
53521;SDS011;39398;48.382;9.802;2023-04-10T11:44:47;3.33;;;2.17;;
53521;SDS011;39398;48.382;9.802;2023-04-10T11:49:52;3.20;;;1.90;;
53521;SDS011;39398;48.382;9.802;2023-04-10T11:54:55;2.38;;;2.17;;
53521;SDS011;39398;48.382;9.802;2023-04-10T11:59:56;2.63;;;1.85;;
53521;SDS011;39398;48.382;9.802;2023-04-10T12:04:58;4.68;;;3.72;;
53521;SDS011;39398;48.382;9.802;2023-04-10T12:10:01;5.05;;;4.22;;
53521;SDS011;39398;48.382;9.802;2023-04-10T12:15:03;6.57;;;5.72;;
53521;SDS011;39398;48.382;9.802;2023-04-10T12:20:23;4.03;;;2.90;;
53521;SDS011;39398;48.382;9.802;2023-04-10T12:25:26;2.53;;;2.20;;
53521;SDS011;39398;48.382;9.802;2023-04-10T12:30:28;2.20;;;1.92;;
53521;SDS011;39398;48.382;9.802;2023-04-10T12:35:36;2.33;;;2.13;;
53521;SDS011;39398;48.382;9.802;2023-04-10T12:40:41;1.70;;;1.60;;
53521;SDS011;39398;48.382;9.802;2023-04-10T12:45:57;1.73;;;1.63;;
53521;SDS011;39398;48.382;9.802;2023-04-10T12:50:59;2.42;;;2.00;;
53521;SDS011;39398;48.382;9.802;2023-04-10T12:56:03;2.13;;;1.90;;
53521;SDS011;39398;48.382;9.802;2023-04-10T13:01:06;1.08;;;1.02;;
53521;SDS011;39398;48.382;9.802;2023-04-10T13:06:08;2.00;;;1.90;;
53521;SDS011;39398;48.382;9.802;2023-04-10T13:11:11;1.77;;;1.67;;
53521;SDS011;39398;48.382;9.802;2023-04-10T13:16:13;2.03;;;1.45;;
53521;SDS011;39398;48.382;9.802;2023-04-10T13:21:15;2.22;;;2.03;;
53521;SDS011;39398;48.382;9.802;2023-04-10T13:26:18;2.20;;;1.67;;
53521;SDS011;39398;48.382;9.802;2023-04-10T13:31:20;1.63;;;1.50;;
53521;SDS011;39398;48.382;9.802;2023-04-10T13:36:21;3.28;;;1.83;;
53521;SDS011;39398;48.382;9.802;2023-04-10T13:41:24;3.20;;;1.50;;
53521;SDS011;39398;48.382;9.802;2023-04-10T13:46:26;1.67;;;1.48;;
53521;SDS011;39398;48.382;9.802;2023-04-10T13:51:28;1.58;;;1.45;;
53521;SDS011;39398;48.382;9.802;2023-04-10T13:56:30;1.50;;;1.40;;
53521;SDS011;39398;48.382;9.802;2023-04-10T14:01:32;1.40;;;1.30;;
53521;SDS011;39398;48.382;9.802;2023-04-10T14:06:34;1.35;;;1.20;;
53521;SDS011;39398;48.382;9.802;2023-04-10T14:11:37;2.38;;;1.60;;
53521;SDS011;39398;48.382;9.802;2023-04-10T14:16:38;1.60;;;1.40;;
53521;SDS011;39398;48.382;9.802;2023-04-10T14:21:40;1.58;;;1.48;;
53521;SDS011;39398;48.382;9.802;2023-04-10T14:26:42;2.38;;;1.70;;
53521;SDS011;39398;48.382;9.802;2023-04-10T14:31:44;1.83;;;1.60;;
53521;SDS011;39398;48.382;9.802;2023-04-10T14:36:57;1.90;;;1.77;;
53521;SDS011;39398;48.382;9.802;2023-04-10T14:42:00;7.22;;;6.13;;
53521;SDS011;39398;48.382;9.802;2023-04-10T14:47:02;1.73;;;1.60;;
53521;SDS011;39398;48.382;9.802;2023-04-10T14:52:03;1.63;;;1.52;;
53521;SDS011;39398;48.382;9.802;2023-04-10T14:57:06;1.90;;;1.48;;
53521;SDS011;39398;48.382;9.802;2023-04-10T15:02:08;1.70;;;1.58;;
53521;SDS011;39398;48.382;9.802;2023-04-10T15:07:10;2.30;;;1.65;;
53521;SDS011;39398;48.382;9.802;2023-04-10T15:12:12;2.20;;;1.67;;
53521;SDS011;39398;48.382;9.802;2023-04-10T15:17:14;1.42;;;1.30;;
53521;SDS011;39398;48.382;9.802;2023-04-10T15:22:16;1.58;;;1.48;;
53521;SDS011;39398;48.382;9.802;2023-04-10T15:27:18;1.50;;;1.40;;
53521;SDS011;39398;48.382;9.802;2023-04-10T15:32:20;1.73;;;1.63;;
53521;SDS011;39398;48.382;9.802;2023-04-10T15:37:22;1.70;;;1.60;;
53521;SDS011;39398;48.382;9.802;2023-04-10T15:42:25;1.40;;;1.30;;
53521;SDS011;39398;48.382;9.802;2023-04-10T15:47:26;1.60;;;1.50;;
53521;SDS011;39398;48.382;9.802;2023-04-10T15:52:28;1.60;;;1.50;;
53521;SDS011;39398;48.382;9.802;2023-04-10T15:57:31;2.42;;;1.92;;
53521;SDS011;39398;48.382;9.802;2023-04-10T16:02:32;1.98;;;1.40;;
53521;SDS011;39398;48.382;9.802;2023-04-10T16:07:34;1.63;;;1.50;;
53521;SDS011;39398;48.382;9.802;2023-04-10T16:12:37;1.80;;;1.63;;
53521;SDS011;39398;48.382;9.802;2023-04-10T16:17:39;1.52;;;1.35;;
53521;SDS011;39398;48.382;9.802;2023-04-10T16:22:40;1.70;;;1.60;;
53521;SDS011;39398;48.382;9.802;2023-04-10T16:27:43;1.75;;;1.65;;
53521;SDS011;39398;48.382;9.802;2023-04-10T16:32:45;1.80;;;1.70;;
53521;SDS011;39398;48.382;9.802;2023-04-10T16:37:46;2.28;;;2.00;;
53521;SDS011;39398;48.382;9.802;2023-04-10T16:42:49;2.53;;;1.90;;
53521;SDS011;39398;48.382;9.802;2023-04-10T16:47:51;5.82;;;3.92;;
53521;SDS011;39398;48.382;9.802;2023-04-10T16:52:52;2.88;;;1.95;;
53521;SDS011;39398;48.382;9.802;2023-04-10T16:57:55;2.17;;;1.98;;
53521;SDS011;39398;48.382;9.802;2023-04-10T17:02:57;4.82;;;3.17;;
53521;SDS011;39398;48.382;9.802;2023-04-10T17:07:58;3.65;;;2.35;;
53521;SDS011;39398;48.382;9.802;2023-04-10T17:13:01;3.58;;;2.47;;
53521;SDS011;39398;48.382;9.802;2023-04-10T17:18:03;4.07;;;3.00;;
53521;SDS011;39398;48.382;9.802;2023-04-10T17:23:04;4.40;;;3.28;;
53521;SDS011;39398;48.382;9.802;2023-04-10T17:28:07;5.68;;;3.40;;
53521;SDS011;39398;48.382;9.802;2023-04-10T17:33:09;3.22;;;2.33;;
53521;SDS011;39398;48.382;9.802;2023-04-10T17:38:10;2.92;;;2.10;;
53521;SDS011;39398;48.382;9.802;2023-04-10T17:43:13;3.70;;;2.42;;
53521;SDS011;39398;48.382;9.802;2023-04-10T17:48:15;4.03;;;2.65;;
53521;SDS011;39398;48.382;9.802;2023-04-10T17:53:17;4.53;;;3.58;;
53521;SDS011;39398;48.382;9.802;2023-04-10T17:58:20;5.53;;;4.32;;
53521;SDS011;39398;48.382;9.802;2023-04-10T18:03:21;8.45;;;5.47;;
53521;SDS011;39398;48.382;9.802;2023-04-10T18:08:23;6.57;;;4.63;;
53521;SDS011;39398;48.382;9.802;2023-04-10T18:13:26;13.93;;;8.90;;
53521;SDS011;39398;48.382;9.802;2023-04-10T18:18:27;5.50;;;4.43;;
53521;SDS011;39398;48.382;9.802;2023-04-10T18:23:29;4.72;;;3.78;;
53521;SDS011;39398;48.382;9.802;2023-04-10T18:28:32;4.38;;;2.67;;
53521;SDS011;39398;48.382;9.802;2023-04-10T18:33:34;4.45;;;2.70;;
53521;SDS011;39398;48.382;9.802;2023-04-10T18:38:35;7.88;;;2.95;;
53521;SDS011;39398;48.382;9.802;2023-04-10T18:43:39;14.27;;;9.70;;
53521;SDS011;39398;48.382;9.802;2023-04-10T18:48:42;3.72;;;2.90;;
53521;SDS011;39398;48.382;9.802;2023-04-10T18:53:44;3.00;;;2.28;;
53521;SDS011;39398;48.382;9.802;2023-04-10T18:58:46;7.28;;;6.00;;
53521;SDS011;39398;48.382;9.802;2023-04-10T19:03:50;3.75;;;3.17;;
53521;SDS011;39398;48.382;9.802;2023-04-10T19:08:53;5.28;;;4.00;;
53521;SDS011;39398;48.382;9.802;2023-04-10T19:13:56;5.70;;;3.70;;
53521;SDS011;39398;48.382;9.802;2023-04-10T19:18:58;5.15;;;3.85;;
53521;SDS011;39398;48.382;9.802;2023-04-10T19:24:00;2.58;;;1.95;;
53521;SDS011;39398;48.382;9.802;2023-04-10T19:29:02;1.92;;;1.77;;
53521;SDS011;39398;48.382;9.802;2023-04-10T19:34:04;1.70;;;1.60;;
53521;SDS011;39398;48.382;9.802;2023-04-10T19:39:06;2.00;;;1.73;;
53521;SDS011;39398;48.382;9.802;2023-04-10T19:44:09;2.00;;;1.75;;
53521;SDS011;39398;48.382;9.802;2023-04-10T19:49:10;1.73;;;1.63;;
53521;SDS011;39398;48.382;9.802;2023-04-10T19:54:12;1.85;;;1.60;;
53521;SDS011;39398;48.382;9.802;2023-04-10T19:59:15;2.10;;;1.77;;
53521;SDS011;39398;48.382;9.802;2023-04-10T20:04:17;3.92;;;1.70;;
53521;SDS011;39398;48.382;9.802;2023-04-10T20:09:18;1.90;;;1.60;;
53521;SDS011;39398;48.382;9.802;2023-04-10T20:14:21;2.53;;;1.90;;
53521;SDS011;39398;48.382;9.802;2023-04-10T20:19:23;2.60;;;2.20;;
53521;SDS011;39398;48.382;9.802;2023-04-10T20:24:24;3.80;;;2.30;;
53521;SDS011;39398;48.382;9.802;2023-04-10T20:29:27;3.15;;;2.35;;
53521;SDS011;39398;48.382;9.802;2023-04-10T20:34:29;3.60;;;2.47;;
53521;SDS011;39398;48.382;9.802;2023-04-10T20:39:31;5.15;;;3.35;;
53521;SDS011;39398;48.382;9.802;2023-04-10T20:44:35;2.60;;;2.10;;
53521;SDS011;39398;48.382;9.802;2023-04-10T20:49:37;2.00;;;1.80;;
53521;SDS011;39398;48.382;9.802;2023-04-10T20:54:38;2.05;;;1.88;;
53521;SDS011;39398;48.382;9.802;2023-04-10T20:59:41;2.17;;;1.70;;
53521;SDS011;39398;48.382;9.802;2023-04-10T21:04:43;2.58;;;2.28;;
53521;SDS011;39398;48.382;9.802;2023-04-10T21:09:44;2.10;;;1.90;;
53521;SDS011;39398;48.382;9.802;2023-04-10T21:14:47;2.47;;;1.90;;
53521;SDS011;39398;48.382;9.802;2023-04-10T21:19:49;3.63;;;2.33;;
53521;SDS011;39398;48.382;9.802;2023-04-10T21:24:51;6.28;;;2.20;;
53521;SDS011;39398;48.382;9.802;2023-04-10T21:29:54;3.40;;;2.13;;
53521;SDS011;39398;48.382;9.802;2023-04-10T21:34:55;2.65;;;2.08;;
53521;SDS011;39398;48.382;9.802;2023-04-10T21:39:57;2.95;;;2.45;;
53521;SDS011;39398;48.382;9.802;2023-04-10T21:44:59;2.10;;;1.90;;
53521;SDS011;39398;48.382;9.802;2023-04-10T21:50:01;2.70;;;2.42;;
53521;SDS011;39398;48.382;9.802;2023-04-10T21:55:03;2.97;;;2.38;;
53521;SDS011;39398;48.382;9.802;2023-04-10T22:00:08;4.88;;;2.33;;
53521;SDS011;39398;48.382;9.802;2023-04-10T22:05:11;5.90;;;4.88;;
53521;SDS011;39398;48.382;9.802;2023-04-10T22:10:13;3.17;;;2.20;;
53521;SDS011;39398;48.382;9.802;2023-04-10T22:15:16;3.20;;;2.35;;
53521;SDS011;39398;48.382;9.802;2023-04-10T22:20:18;3.30;;;2.30;;
53521;SDS011;39398;48.382;9.802;2023-04-10T22:25:20;3.95;;;2.40;;
53521;SDS011;39398;48.382;9.802;2023-04-10T22:30:24;2.40;;;2.20;;
53521;SDS011;39398;48.382;9.802;2023-04-10T22:35:26;3.55;;;2.95;;
53521;SDS011;39398;48.382;9.802;2023-04-10T22:40:28;7.13;;;2.67;;
53521;SDS011;39398;48.382;9.802;2023-04-10T22:45:31;4.30;;;2.30;;
53521;SDS011;39398;48.382;9.802;2023-04-10T22:50:33;4.20;;;2.50;;
53521;SDS011;39398;48.382;9.802;2023-04-10T22:55:35;4.68;;;2.42;;
53521;SDS011;39398;48.382;9.802;2023-04-10T23:00:38;6.20;;;2.42;;
53521;SDS011;39398;48.382;9.802;2023-04-10T23:05:40;4.25;;;2.40;;
53521;SDS011;39398;48.382;9.802;2023-04-10T23:10:41;3.13;;;2.30;;
53521;SDS011;39398;48.382;9.802;2023-04-10T23:15:48;4.15;;;2.20;;
53521;SDS011;39398;48.382;9.802;2023-04-10T23:20:49;2.65;;;2.30;;
53521;SDS011;39398;48.382;9.802;2023-04-10T23:25:55;2.97;;;2.55;;
53521;SDS011;39398;48.382;9.802;2023-04-10T23:30:58;3.63;;;2.20;;
53521;SDS011;39398;48.382;9.802;2023-04-10T23:36:00;2.35;;;2.00;;
53521;SDS011;39398;48.382;9.802;2023-04-10T23:41:01;4.25;;;2.25;;
53521;SDS011;39398;48.382;9.802;2023-04-10T23:46:05;3.28;;;2.33;;
53521;SDS011;39398;48.382;9.802;2023-04-10T23:51:07;2.50;;;2.22;;
53521;SDS011;39398;48.382;9.802;2023-04-10T23:56:09;2.72;;;2.40;;
